createdAt,value
2023-03-20T00:00:51.620Z,13.70
2023-03-20T00:01:51.608Z,14.20
2023-03-20T00:02:51.607Z,13.20
2023-03-20T00:03:51.688Z,13.80
2023-03-20T00:04:51.642Z,14.60
2023-03-20T00:05:51.605Z,14.20
2023-03-20T00:06:51.588Z,13.60
2023-03-20T00:07:51.588Z,14.60
2023-03-20T00:08:51.586Z,14.40
2023-03-20T00:09:51.578Z,14.70
2023-03-20T00:10:51.590Z,14.70
2023-03-20T00:11:51.586Z,13.60
2023-03-20T00:12:51.571Z,14.60
2023-03-20T00:13:51.556Z,14.70
2023-03-20T00:14:51.555Z,14.50
2023-03-20T00:15:51.564Z,14.40
2023-03-20T00:16:51.558Z,13.70
2023-03-20T00:17:51.541Z,14.80
2023-03-20T00:18:51.536Z,14.50
2023-03-20T00:19:51.542Z,14.80
2023-03-20T00:20:51.537Z,14.50
2023-03-20T00:21:51.544Z,13.90
2023-03-20T00:22:51.525Z,14.40
2023-03-20T00:23:51.518Z,14.10
2023-03-20T00:24:51.512Z,14.60
2023-03-20T00:25:51.860Z,15.00
2023-03-20T00:26:51.523Z,14.40
2023-03-20T00:27:51.498Z,14.80
2023-03-20T00:28:51.493Z,14.60
2023-03-20T00:29:51.488Z,14.90
2023-03-20T00:30:51.489Z,15.00
2023-03-20T00:31:51.613Z,14.10
2023-03-20T00:32:51.507Z,14.60
2023-03-20T00:33:51.469Z,14.70
2023-03-20T00:34:51.469Z,14.30
2023-03-20T00:35:51.461Z,13.90
2023-03-20T00:36:51.458Z,13.80
2023-03-20T00:37:51.460Z,14.30
2023-03-20T00:38:51.459Z,14.10
2023-03-20T00:39:51.446Z,14.40
2023-03-20T00:40:51.442Z,15.10
2023-03-20T00:41:51.434Z,14.90
2023-03-20T00:42:51.452Z,14.80
2023-03-20T00:43:51.427Z,14.70
2023-03-20T00:44:51.422Z,14.30
2023-03-20T00:45:51.418Z,14.90
2023-03-20T00:46:51.481Z,14.30
2023-03-20T00:47:51.429Z,14.70
2023-03-20T00:48:51.410Z,14.00
2023-03-20T00:49:51.399Z,13.50
2023-03-20T00:50:51.411Z,13.80
2023-03-20T00:51:51.395Z,13.30
2023-03-20T00:52:51.391Z,13.60
2023-03-20T00:53:51.380Z,13.00
2023-03-20T00:54:51.382Z,13.40
2023-03-20T00:55:51.371Z,13.00
2023-03-20T00:56:51.371Z,13.00
2023-03-20T00:57:51.362Z,13.20
2023-03-20T00:58:51.395Z,12.30
2023-03-20T00:59:51.363Z,13.20
2023-03-20T01:00:51.410Z,13.70
2023-03-20T01:01:51.373Z,13.40
2023-03-20T01:02:51.343Z,13.40
2023-03-20T01:03:51.340Z,13.50
2023-03-20T01:04:51.340Z,13.10
2023-03-20T01:05:51.327Z,13.10
2023-03-20T01:06:51.327Z,13.30
2023-03-20T01:07:51.321Z,13.30
2023-03-20T01:08:51.316Z,13.20
2023-03-20T01:09:51.313Z,12.90
2023-03-20T01:10:51.304Z,13.30
2023-03-20T01:11:53.644Z,12.60
2023-03-20T01:12:51.296Z,12.80
2023-03-20T01:13:51.291Z,13.20
2023-03-20T01:14:51.311Z,12.10
2023-03-20T01:15:51.282Z,11.90
2023-03-20T01:16:51.292Z,12.50
2023-03-20T01:17:51.269Z,12.30
2023-03-20T01:18:51.280Z,12.10
2023-03-20T01:19:51.261Z,12.30
2023-03-20T01:20:51.261Z,12.60
2023-03-20T01:21:51.258Z,11.90
2023-03-20T01:22:51.260Z,11.10
2023-03-20T01:23:51.248Z,12.50
2023-03-20T01:24:51.239Z,12.00
2023-03-20T01:25:51.583Z,11.70
2023-03-20T01:26:51.234Z,12.20
2023-03-20T01:27:51.227Z,12.40
2023-03-20T01:28:51.225Z,13.00
2023-03-20T01:29:51.217Z,12.90
2023-03-20T01:30:51.247Z,13.00
2023-03-20T01:31:51.250Z,12.60
2023-03-20T01:32:51.270Z,12.10
2023-03-20T01:33:51.235Z,13.20
2023-03-20T01:34:51.220Z,13.20
2023-03-20T01:35:51.249Z,13.50
2023-03-20T01:36:51.207Z,12.90
2023-03-20T01:37:51.186Z,12.70
2023-03-20T01:38:51.201Z,12.10
2023-03-20T01:39:51.206Z,12.60
2023-03-20T01:40:51.175Z,13.10
2023-03-20T01:41:51.188Z,12.50
2023-03-20T01:42:51.196Z,12.90
2023-03-20T01:43:51.192Z,12.80
2023-03-20T01:44:51.160Z,12.50
2023-03-20T01:45:51.292Z,12.30
2023-03-20T01:46:51.197Z,13.20
2023-03-20T01:47:51.174Z,12.90
2023-03-20T01:48:51.189Z,12.60
2023-03-20T01:49:51.165Z,13.50
2023-03-20T01:50:51.166Z,12.90
2023-03-20T01:51:51.139Z,12.90
2023-03-20T01:52:51.121Z,12.70
2023-03-20T01:53:51.116Z,12.30
2023-03-20T01:54:51.123Z,13.10
2023-03-20T01:55:51.112Z,12.10
2023-03-20T01:56:51.113Z,12.40
2023-03-20T01:57:51.109Z,12.20
2023-03-20T01:58:51.110Z,12.20
2023-03-20T01:59:51.092Z,11.50
2023-03-20T02:00:51.180Z,12.10
2023-03-20T02:01:51.085Z,13.00
2023-03-20T02:02:51.106Z,12.30
2023-03-20T02:03:51.074Z,12.20
2023-03-20T02:04:51.159Z,12.70
2023-03-20T02:05:51.063Z,12.90
2023-03-20T02:06:51.066Z,12.80
2023-03-20T02:07:51.058Z,9.40
2023-03-20T02:08:51.055Z,10.60
2023-03-20T02:09:51.050Z,11.00
2023-03-20T02:10:51.045Z,11.20
2023-03-20T02:11:51.047Z,11.60
2023-03-20T02:12:51.042Z,11.20
2023-03-20T02:13:51.031Z,12.50
2023-03-20T02:14:51.030Z,11.70
2023-03-20T02:15:51.025Z,10.30
2023-03-20T02:16:51.070Z,10.60
2023-03-20T02:17:51.018Z,10.90
2023-03-20T02:18:51.030Z,10.10
2023-03-20T02:19:51.012Z,10.10
2023-03-20T02:20:51.001Z,10.70
2023-03-20T02:21:50.994Z,10.10
2023-03-20T02:22:50.996Z,9.40
2023-03-20T02:23:51.003Z,9.20
2023-03-20T02:24:50.988Z,8.90
2023-03-20T02:25:50.977Z,10.90
2023-03-20T02:26:50.987Z,11.00
2023-03-20T02:27:50.975Z,11.70
2023-03-20T02:28:50.976Z,12.50
2023-03-20T02:29:50.965Z,10.50
2023-03-20T02:30:51.011Z,11.40
2023-03-20T02:31:50.961Z,12.40
2023-03-20T02:32:51.039Z,11.90
2023-03-20T02:33:50.963Z,11.90
2023-03-20T02:34:50.966Z,11.90
2023-03-20T02:35:50.981Z,12.50
2023-03-20T02:36:50.936Z,12.30
2023-03-20T02:37:50.927Z,9.00
2023-03-20T02:38:50.932Z,9.00
2023-03-20T02:39:50.931Z,9.70
2023-03-20T02:40:50.946Z,9.20
2023-03-20T02:41:51.005Z,9.80
2023-03-20T02:42:50.906Z,9.70
2023-03-20T02:43:50.899Z,9.60
2023-03-20T02:44:50.906Z,9.70
2023-03-20T02:45:50.967Z,12.50
2023-03-20T02:46:50.890Z,11.60
2023-03-20T02:47:50.884Z,8.90
2023-03-20T02:48:50.916Z,9.80
2023-03-20T02:49:50.876Z,9.90
2023-03-20T02:50:50.896Z,9.80
2023-03-20T02:51:50.876Z,10.20
2023-03-20T02:52:50.860Z,10.10
2023-03-20T02:53:50.856Z,10.30
2023-03-20T02:54:50.859Z,10.00
2023-03-20T02:55:50.855Z,11.30
2023-03-20T02:56:50.862Z,10.20
2023-03-20T02:57:50.850Z,10.00
2023-03-20T02:58:50.840Z,10.50
2023-03-20T02:59:50.830Z,11.10
2023-03-20T03:00:50.826Z,11.40
2023-03-20T03:01:50.888Z,11.00
2023-03-20T03:02:50.845Z,11.60
2023-03-20T03:03:50.819Z,11.40
2023-03-20T03:04:50.825Z,10.60
2023-03-20T03:05:50.812Z,11.20
2023-03-20T03:06:50.826Z,11.40
2023-03-20T03:07:50.799Z,12.00
2023-03-20T03:08:50.793Z,12.00
2023-03-20T03:09:50.788Z,11.20
2023-03-20T03:10:50.786Z,11.90
2023-03-20T03:11:50.778Z,12.40
2023-03-20T03:12:50.786Z,12.00
2023-03-20T03:13:50.773Z,12.20
2023-03-20T03:14:50.766Z,11.90
2023-03-20T03:15:50.810Z,11.40
2023-03-20T03:16:50.761Z,11.40
2023-03-20T03:17:50.771Z,11.70
2023-03-20T03:18:50.750Z,11.30
2023-03-20T03:19:50.749Z,12.00
2023-03-20T03:20:50.744Z,10.80
2023-03-20T03:21:50.752Z,11.20
2023-03-20T03:22:50.758Z,11.70
2023-03-20T03:23:50.727Z,12.80
2023-03-20T03:24:50.730Z,12.90
2023-03-20T03:25:50.719Z,12.30
2023-03-20T03:26:50.713Z,14.30
2023-03-20T03:27:50.709Z,12.80
2023-03-20T03:28:50.706Z,14.00
2023-03-20T03:29:50.697Z,13.80
2023-03-20T03:30:50.730Z,14.30
2023-03-20T03:31:50.689Z,14.20
2023-03-20T03:32:50.820Z,13.90
2023-03-20T03:33:50.684Z,14.70
2023-03-20T03:34:50.677Z,15.10
2023-03-20T03:35:50.728Z,14.80
2023-03-20T03:36:50.672Z,15.40
2023-03-20T03:37:50.676Z,15.50
2023-03-20T03:38:50.684Z,15.10
2023-03-20T03:39:50.662Z,16.20
2023-03-20T03:40:50.650Z,15.30
2023-03-20T03:41:50.647Z,14.30
2023-03-20T03:42:50.642Z,13.90
2023-03-20T03:43:50.637Z,15.10
2023-03-20T03:44:50.632Z,14.50
2023-03-20T03:45:50.650Z,14.30
2023-03-20T03:46:50.696Z,15.00
2023-03-20T03:47:50.634Z,15.90
2023-03-20T03:48:50.632Z,15.20
2023-03-20T03:49:50.612Z,13.60
2023-03-20T03:50:50.604Z,13.90
2023-03-20T03:51:50.602Z,14.80
2023-03-20T03:52:50.596Z,14.50
2023-03-20T03:53:50.597Z,15.00
2023-03-20T03:54:50.609Z,15.30
2023-03-20T03:55:50.687Z,14.40
2023-03-20T03:56:50.590Z,14.20
2023-03-20T03:57:50.584Z,14.40
2023-03-20T03:58:50.570Z,13.40
2023-03-20T03:59:50.574Z,14.00
2023-03-20T04:00:50.612Z,13.10
2023-03-20T04:01:50.594Z,13.30
2023-03-20T04:02:50.555Z,14.90
2023-03-20T04:03:50.553Z,14.70
2023-03-20T04:04:50.668Z,14.40
2023-03-20T04:05:50.544Z,14.80
2023-03-20T04:06:50.544Z,15.10
2023-03-20T04:07:50.537Z,14.50
2023-03-20T04:08:50.533Z,14.90
2023-03-20T04:09:50.540Z,15.20
2023-03-20T04:10:50.540Z,14.00
2023-03-20T04:11:50.518Z,15.00
2023-03-20T04:12:50.508Z,15.90
2023-03-20T04:13:50.513Z,15.20
2023-03-20T04:14:50.511Z,15.30
2023-03-20T04:15:50.554Z,16.10
2023-03-20T04:16:50.495Z,16.80
2023-03-20T04:17:50.490Z,17.50
2023-03-20T04:18:50.494Z,17.20
2023-03-20T04:19:50.497Z,16.90
2023-03-20T04:20:50.476Z,17.40
2023-03-20T04:21:50.474Z,16.30
2023-03-20T04:22:50.468Z,17.50
2023-03-20T04:23:50.466Z,17.50
2023-03-20T04:24:50.472Z,17.70
2023-03-20T04:25:50.457Z,18.00
2023-03-20T04:26:50.476Z,17.90
2023-03-20T04:27:50.468Z,17.30
2023-03-20T04:28:50.446Z,17.30
2023-03-20T04:29:50.440Z,16.90
2023-03-20T04:30:50.786Z,16.60
2023-03-20T04:31:50.540Z,16.10
2023-03-20T04:32:50.448Z,17.00
2023-03-20T04:33:50.432Z,15.50
2023-03-20T04:34:50.424Z,16.30
2023-03-20T04:35:50.442Z,16.30
2023-03-20T04:36:50.408Z,15.90
2023-03-20T04:37:50.405Z,16.20
2023-03-20T04:38:50.397Z,17.20
2023-03-20T04:39:50.403Z,16.20
2023-03-20T04:40:50.389Z,16.10
2023-03-20T04:41:50.388Z,15.80
2023-03-20T04:42:50.401Z,16.00
2023-03-20T04:43:50.378Z,16.50
2023-03-20T04:44:50.374Z,16.50
2023-03-20T04:45:50.406Z,15.80
2023-03-20T04:46:50.378Z,15.80
2023-03-20T04:47:50.366Z,15.20
2023-03-20T04:48:50.351Z,15.60
2023-03-20T04:49:50.355Z,15.30
2023-03-20T04:50:50.364Z,16.40
2023-03-20T04:51:50.346Z,16.40
2023-03-20T04:52:50.340Z,15.80
2023-03-20T04:53:50.358Z,16.30
2023-03-20T04:54:50.331Z,16.60
2023-03-20T04:55:50.325Z,16.60
2023-03-20T04:56:50.336Z,17.20
2023-03-20T04:57:50.321Z,16.70
2023-03-20T04:58:50.332Z,16.70
2023-03-20T04:59:50.308Z,16.90
2023-03-20T05:00:50.440Z,16.50
2023-03-20T05:01:50.301Z,16.90
2023-03-20T05:02:50.297Z,17.30
2023-03-20T05:03:50.309Z,16.40
2023-03-20T05:04:50.287Z,16.50
2023-03-20T05:05:50.284Z,16.70
2023-03-20T05:06:50.279Z,17.10
2023-03-20T05:07:50.274Z,16.80
2023-03-20T05:08:50.264Z,17.30
2023-03-20T05:09:50.263Z,16.70
2023-03-20T05:10:50.258Z,16.30
2023-03-20T05:11:50.282Z,16.10
2023-03-20T05:12:50.250Z,16.80
2023-03-20T05:13:50.243Z,15.80
2023-03-20T05:14:50.258Z,15.70
2023-03-20T05:15:50.234Z,14.60
2023-03-20T05:16:50.307Z,16.00
2023-03-20T05:17:51.800Z,15.90
2023-03-20T05:18:50.223Z,15.60
2023-03-20T05:19:50.228Z,15.70
2023-03-20T05:20:50.210Z,15.10
2023-03-20T05:21:50.209Z,15.20
2023-03-20T05:22:50.201Z,14.70
2023-03-20T05:23:50.200Z,14.90
2023-03-20T05:24:50.206Z,14.30
2023-03-20T05:25:50.193Z,14.30
2023-03-20T05:26:50.184Z,14.80
2023-03-20T05:27:50.180Z,14.00
2023-03-20T05:28:50.174Z,14.60
2023-03-20T05:29:50.173Z,13.80
2023-03-20T05:30:50.677Z,13.90
2023-03-20T05:31:50.168Z,14.30
2023-03-20T05:32:50.221Z,13.80
2023-03-20T05:33:50.157Z,13.90
2023-03-20T05:34:50.146Z,12.50
2023-03-20T05:35:50.163Z,12.60
2023-03-20T05:36:50.150Z,12.30
2023-03-20T05:37:50.138Z,13.20
2023-03-20T05:38:50.133Z,13.20
2023-03-20T05:39:50.132Z,12.80
2023-03-20T05:40:50.126Z,13.20
2023-03-20T05:41:50.125Z,13.40
2023-03-20T05:42:50.118Z,12.90
2023-03-20T05:43:50.110Z,12.80
2023-03-20T05:44:50.101Z,11.40
2023-03-20T05:45:50.152Z,12.40
2023-03-20T05:46:50.113Z,12.80
2023-03-20T05:47:50.094Z,14.30
2023-03-20T05:48:50.092Z,14.30
2023-03-20T05:49:50.083Z,14.50
2023-03-20T05:50:50.085Z,13.80
2023-03-20T05:51:50.075Z,13.70
2023-03-20T05:52:50.077Z,14.30
2023-03-20T05:53:50.071Z,14.20
2023-03-20T05:54:50.067Z,14.30
2023-03-20T05:55:50.069Z,15.30
2023-03-20T05:56:50.104Z,16.10
2023-03-20T05:57:50.060Z,15.90
2023-03-20T05:58:50.066Z,15.60
2023-03-20T05:59:50.044Z,15.40
2023-03-20T06:00:50.035Z,15.70
2023-03-20T06:01:50.037Z,16.70
2023-03-20T06:02:50.211Z,17.20
2023-03-20T06:03:50.057Z,16.60
2023-03-20T06:04:50.023Z,17.10
2023-03-20T06:05:50.034Z,17.20
2023-03-20T06:06:50.014Z,16.30
2023-03-20T06:07:50.004Z,17.90
2023-03-20T06:08:49.998Z,17.40
2023-03-20T06:09:49.996Z,17.50
2023-03-20T06:10:49.998Z,17.70
2023-03-20T06:11:50.008Z,17.60
2023-03-20T06:12:49.982Z,18.00
2023-03-20T06:13:49.977Z,17.60
2023-03-20T06:14:49.970Z,17.70
2023-03-20T06:15:50.063Z,18.10
2023-03-20T06:16:49.963Z,18.80
2023-03-20T06:17:49.969Z,17.40
2023-03-20T06:18:49.979Z,17.10
2023-03-20T06:19:49.956Z,17.90
2023-03-20T06:20:49.949Z,17.90
2023-03-20T06:21:49.949Z,17.50
2023-03-20T06:22:49.937Z,17.80
2023-03-20T06:23:49.937Z,18.90
2023-03-20T06:24:49.928Z,18.20
2023-03-20T06:25:49.926Z,17.70
2023-03-20T06:26:49.922Z,17.90
2023-03-20T06:27:49.923Z,17.10
2023-03-20T06:28:49.909Z,17.90
2023-03-20T06:29:49.906Z,18.00
2023-03-20T06:30:49.950Z,17.50
2023-03-20T06:31:50.249Z,17.70
2023-03-20T06:32:49.932Z,16.80
2023-03-20T06:33:49.885Z,16.80
2023-03-20T06:34:49.896Z,17.50
2023-03-20T06:35:49.934Z,17.50
2023-03-20T06:36:49.873Z,17.10
2023-03-20T06:37:49.873Z,18.30
2023-03-20T06:38:49.862Z,16.90
2023-03-20T06:39:49.867Z,17.40
2023-03-20T06:40:49.868Z,17.40
2023-03-20T06:41:49.854Z,17.10
2023-03-20T06:42:49.857Z,17.10
2023-03-20T06:43:49.840Z,17.20
2023-03-20T06:44:49.834Z,17.70
2023-03-20T06:45:49.832Z,16.80
2023-03-20T06:46:49.886Z,16.80
2023-03-20T06:47:49.834Z,16.70
2023-03-20T06:48:49.827Z,16.60
2023-03-20T06:49:49.814Z,17.10
2023-03-20T06:50:49.828Z,17.30
2023-03-20T06:51:49.810Z,16.80
2023-03-20T06:52:49.803Z,17.40
2023-03-20T06:53:49.800Z,16.40
2023-03-20T06:54:49.790Z,17.30
2023-03-20T06:55:49.786Z,18.00
2023-03-20T06:56:49.779Z,16.80
2023-03-20T06:57:49.777Z,17.60
2023-03-20T06:58:49.776Z,17.10
2023-03-20T06:59:49.772Z,17.20
2023-03-20T07:00:49.763Z,17.50
2023-03-20T07:01:49.810Z,16.80
2023-03-20T07:02:49.757Z,16.60
2023-03-20T07:03:49.758Z,16.30
2023-03-20T07:04:49.844Z,17.40
2023-03-20T07:05:49.751Z,16.70
2023-03-20T07:06:49.766Z,16.70
2023-03-20T07:07:49.744Z,16.50
2023-03-20T07:08:49.734Z,16.30
2023-03-20T07:09:49.728Z,16.40
2023-03-20T07:10:49.776Z,15.80
2023-03-20T07:11:49.727Z,16.50
2023-03-20T07:12:49.723Z,16.00
2023-03-20T07:13:50.049Z,16.20
2023-03-20T07:14:49.716Z,16.10
2023-03-20T07:16:03.342Z,15.50
2023-03-20T07:16:49.727Z,15.80
2023-03-20T07:17:49.699Z,17.00
2023-03-20T07:18:49.694Z,15.60
2023-03-20T07:19:49.694Z,16.40
2023-03-20T07:20:49.684Z,16.60
2023-03-20T07:21:49.697Z,16.40
2023-03-20T07:22:49.696Z,16.40
2023-03-20T07:23:49.674Z,15.20
2023-03-20T07:24:49.668Z,16.30
2023-03-20T07:25:49.668Z,15.90
2023-03-20T07:26:49.669Z,16.10
2023-03-20T07:27:49.657Z,15.70
2023-03-20T07:28:49.661Z,15.60
2023-03-20T07:29:49.651Z,15.80
2023-03-20T07:30:49.641Z,15.80
2023-03-20T07:31:49.676Z,15.70
2023-03-20T07:32:49.711Z,15.20
2023-03-20T07:33:49.639Z,15.60
2023-03-20T07:34:49.629Z,15.30
2023-03-20T07:35:49.687Z,15.20
2023-03-20T07:36:49.616Z,14.90
2023-03-20T07:37:49.663Z,15.10
2023-03-20T07:38:49.641Z,15.10
2023-03-20T07:39:49.610Z,15.20
2023-03-20T07:40:49.596Z,14.80
2023-03-20T07:41:49.605Z,14.80
2023-03-20T07:42:49.602Z,15.10
2023-03-20T07:43:49.589Z,15.10
2023-03-20T07:44:49.587Z,15.00
2023-03-20T07:45:49.615Z,15.10
2023-03-20T07:46:49.573Z,15.00
2023-03-20T07:47:49.622Z,14.90
2023-03-20T07:48:49.569Z,14.50
2023-03-20T07:49:49.559Z,15.70
2023-03-20T07:50:49.553Z,14.70
2023-03-20T07:51:49.558Z,14.70
2023-03-20T07:52:49.538Z,15.20
2023-03-20T07:53:49.538Z,14.50
2023-03-20T07:54:49.555Z,14.40
2023-03-20T07:55:49.540Z,15.00
2023-03-20T07:56:49.527Z,14.30
2023-03-20T07:57:49.542Z,14.10
2023-03-20T07:58:49.526Z,13.70
2023-03-20T07:59:49.514Z,12.80
2023-03-20T08:00:49.528Z,13.00
2023-03-20T08:01:49.503Z,13.50
2023-03-20T08:02:49.724Z,13.30
2023-03-20T08:03:49.726Z,11.80
2023-03-20T08:04:49.500Z,11.50
2023-03-20T08:05:49.503Z,11.50
2023-03-20T08:06:49.483Z,10.90
2023-03-20T08:07:49.477Z,11.80
2023-03-20T08:08:49.473Z,11.30
2023-03-20T08:09:49.467Z,11.30
2023-03-20T08:10:49.484Z,11.10
2023-03-20T08:11:49.481Z,11.70
2023-03-20T08:12:49.461Z,11.70
2023-03-20T08:13:49.471Z,11.00
2023-03-20T08:14:49.450Z,11.00
2023-03-20T08:15:49.447Z,11.40
2023-03-20T08:17:02.415Z,11.20
2023-03-20T08:17:49.461Z,12.30
2023-03-20T08:18:49.435Z,11.70
2023-03-20T08:19:49.432Z,11.70
2023-03-20T08:20:49.428Z,11.00
2023-03-20T08:21:49.420Z,10.90
2023-03-20T08:22:49.419Z,11.40
2023-03-20T08:23:49.413Z,11.10
2023-03-20T08:24:49.413Z,10.70
2023-03-20T08:25:49.425Z,11.10
2023-03-20T08:26:49.491Z,10.90
2023-03-20T08:27:49.409Z,10.80
2023-03-20T08:28:50.073Z,11.00
2023-03-20T08:29:49.395Z,10.70
2023-03-20T08:30:49.659Z,10.10
2023-03-20T08:31:49.418Z,10.70
2023-03-20T08:32:49.416Z,10.20
2023-03-20T08:33:49.372Z,10.90
2023-03-20T08:34:49.377Z,10.50
2023-03-20T08:35:49.730Z,10.90
2023-03-20T08:36:49.640Z,10.40
2023-03-20T08:37:49.368Z,10.60
2023-03-20T08:38:49.352Z,10.20
2023-03-20T08:39:49.349Z,10.40
2023-03-20T08:40:49.344Z,10.00
2023-03-20T08:41:49.649Z,9.90
2023-03-20T08:42:49.368Z,10.20
2023-03-20T08:43:49.373Z,10.10
2023-03-20T08:44:49.336Z,9.90
2023-03-20T08:45:49.336Z,10.20
2023-03-20T08:46:49.360Z,9.70
2023-03-20T08:47:49.310Z,10.20
2023-03-20T08:48:49.310Z,9.50
2023-03-20T08:49:49.300Z,9.40
2023-03-20T08:50:49.306Z,10.00
2023-03-20T08:51:49.293Z,9.60
2023-03-20T08:52:49.296Z,9.70
2023-03-20T08:53:49.284Z,8.90
2023-03-20T08:54:49.280Z,9.20
2023-03-20T08:55:49.292Z,9.80
2023-03-20T08:56:49.319Z,9.30
2023-03-20T08:57:49.267Z,8.80
2023-03-20T08:58:49.283Z,9.60
2023-03-20T08:59:49.259Z,9.10
2023-03-20T09:00:49.258Z,9.00
2023-03-20T09:01:50.559Z,8.60
2023-03-20T09:02:49.275Z,8.40
2023-03-20T09:03:49.241Z,8.20
2023-03-20T09:04:49.237Z,8.70
2023-03-20T09:05:49.239Z,8.50
2023-03-20T09:06:49.357Z,8.70
2023-03-20T09:07:49.230Z,8.10
2023-03-20T09:08:49.221Z,7.80
2023-03-20T09:09:49.215Z,7.40
2023-03-20T09:10:52.074Z,7.30
2023-03-20T09:11:49.207Z,7.50
2023-03-20T09:12:49.203Z,7.70
2023-03-20T09:13:49.197Z,7.80
2023-03-20T09:14:49.220Z,7.80
2023-03-20T09:15:49.201Z,7.70
2023-03-20T09:16:49.190Z,7.70
2023-03-20T09:17:49.183Z,8.30
2023-03-20T09:18:49.183Z,7.60
2023-03-20T09:19:49.182Z,7.80
2023-03-20T09:20:49.246Z,7.60
2023-03-20T09:21:49.169Z,7.30
2023-03-20T09:22:49.166Z,7.70
2023-03-20T09:23:49.157Z,7.50
2023-03-20T09:24:49.161Z,7.70
2023-03-20T09:25:49.156Z,7.80
2023-03-20T09:26:49.168Z,7.40
2023-03-20T09:27:49.144Z,7.60
2023-03-20T09:28:49.138Z,7.60
2023-03-20T09:29:49.136Z,7.30
2023-03-20T09:30:49.173Z,7.20
2023-03-20T09:31:49.130Z,7.70
2023-03-20T09:32:49.217Z,7.60
2023-03-20T09:33:49.116Z,7.40
2023-03-20T09:34:49.121Z,7.40
2023-03-20T09:35:49.137Z,7.50
2023-03-20T09:36:49.111Z,7.20
2023-03-20T09:37:49.102Z,7.60
2023-03-20T09:38:49.101Z,7.60
2023-03-20T09:39:49.092Z,7.30
2023-03-20T09:40:49.090Z,7.70
2023-03-20T09:41:56.657Z,7.50
2023-03-20T09:42:49.081Z,7.00
2023-03-20T09:43:49.082Z,7.20
2023-03-20T09:44:49.087Z,6.80
2023-03-20T09:45:49.074Z,7.30
2023-03-20T09:46:49.237Z,6.80
2023-03-20T09:47:49.058Z,6.80
2023-03-20T09:48:49.055Z,6.70
2023-03-20T09:49:49.047Z,6.50
2023-03-20T09:50:49.047Z,6.00
2023-03-20T09:51:49.043Z,6.40
2023-03-20T09:52:49.039Z,7.20
2023-03-20T09:53:49.031Z,7.60
2023-03-20T09:54:54.514Z,7.00
2023-03-20T09:55:49.061Z,6.70
2023-03-20T09:56:49.019Z,6.90
2023-03-20T09:57:49.022Z,6.70
2023-03-20T09:58:49.018Z,6.80
2023-03-20T09:59:49.010Z,6.40
2023-03-20T10:00:49.016Z,5.90
2023-03-20T10:01:49.092Z,6.00
2023-03-20T10:02:49.014Z,5.90
2023-03-20T10:03:48.993Z,5.60
2023-03-20T10:04:49.045Z,5.30
2023-03-20T10:05:48.979Z,5.30
2023-03-20T10:06:48.980Z,4.90
2023-03-20T10:07:48.981Z,5.00
2023-03-20T10:08:48.968Z,4.90
2023-03-20T10:09:48.963Z,4.60
2023-03-20T10:10:48.995Z,4.40
2023-03-20T10:11:48.956Z,4.40
2023-03-20T10:12:48.960Z,4.50
2023-03-20T10:13:48.946Z,4.80
2023-03-20T10:14:48.954Z,5.30
2023-03-20T10:15:49.045Z,5.10
2023-03-20T10:16:48.950Z,4.80
2023-03-20T10:17:48.937Z,4.60
2023-03-20T10:18:48.949Z,4.20
2023-03-20T10:19:48.920Z,3.90
2023-03-20T10:20:50.816Z,4.10
2023-03-20T10:21:48.913Z,3.90
2023-03-20T10:22:48.913Z,3.80
2023-03-20T10:23:48.906Z,4.10
2023-03-20T10:24:48.914Z,4.00
2023-03-20T10:25:48.897Z,3.60
2023-03-20T10:26:48.895Z,3.20
2023-03-20T10:27:48.892Z,3.30
2023-03-20T10:28:48.885Z,3.30
2023-03-20T10:29:48.885Z,3.30
2023-03-20T10:30:48.881Z,3.20
2023-03-20T10:31:48.902Z,3.20
2023-03-20T10:32:48.896Z,3.30
2023-03-20T10:33:48.867Z,3.30
2023-03-20T10:34:48.879Z,3.20
2023-03-20T10:35:48.934Z,3.30
2023-03-20T10:36:48.852Z,3.30
2023-03-20T10:37:48.847Z,3.90
2023-03-20T10:38:48.846Z,4.20
2023-03-20T10:39:48.836Z,3.90
2023-03-20T10:40:48.836Z,3.60
2023-03-20T10:41:48.830Z,3.20
2023-03-20T10:42:49.026Z,2.90
2023-03-20T10:43:48.834Z,2.90
2023-03-20T10:44:48.821Z,3.20
2023-03-20T10:45:48.814Z,3.00
2023-03-20T10:46:48.887Z,3.10
2023-03-20T10:47:48.833Z,3.10
2023-03-20T10:48:48.803Z,2.80
2023-03-20T10:49:51.336Z,3.00
2023-03-20T10:50:48.819Z,2.90
2023-03-20T10:51:48.791Z,3.10
2023-03-20T10:52:48.783Z,3.20
2023-03-20T10:53:48.780Z,3.20
2023-03-20T10:54:48.784Z,3.50
2023-03-20T10:55:48.770Z,3.30
2023-03-20T10:56:48.767Z,3.50
2023-03-20T10:57:48.763Z,3.50
2023-03-20T10:58:48.764Z,3.70
2023-03-20T10:59:48.755Z,4.00
2023-03-20T11:00:48.765Z,3.80
2023-03-20T11:01:48.745Z,3.80
2023-03-20T11:02:48.745Z,3.90
2023-03-20T11:03:48.804Z,4.30
2023-03-20T11:04:48.757Z,4.00
2023-03-20T11:06:02.245Z,4.30
2023-03-20T11:06:48.749Z,4.10
2023-03-20T11:07:48.730Z,4.20
2023-03-20T11:08:48.724Z,4.30
2023-03-20T11:09:48.722Z,4.10
2023-03-20T11:10:48.717Z,4.10
2023-03-20T11:11:48.712Z,4.10
2023-03-20T11:12:48.705Z,4.00
2023-03-20T11:13:48.699Z,4.00
2023-03-20T11:14:48.695Z,4.40
2023-03-20T11:15:48.692Z,4.50
2023-03-20T11:16:48.814Z,4.50
2023-03-20T11:17:48.692Z,4.20
2023-03-20T11:18:48.688Z,4.40
2023-03-20T11:19:48.680Z,4.50
2023-03-20T11:20:48.677Z,4.80
2023-03-20T11:21:48.686Z,4.50
2023-03-20T11:22:48.690Z,4.70
2023-03-20T11:23:48.662Z,4.90
2023-03-20T11:24:48.670Z,5.10
2023-03-20T11:25:48.653Z,5.30
2023-03-20T11:26:48.663Z,5.40
2023-03-20T11:27:48.649Z,5.00
2023-03-20T11:28:48.648Z,4.60
2023-03-20T11:29:48.650Z,4.30
2023-03-20T11:31:03.947Z,3.70
2023-03-20T11:31:48.690Z,3.40
2023-03-20T11:32:48.702Z,3.70
2023-03-20T11:33:48.618Z,3.60
2023-03-20T11:34:48.617Z,3.80
2023-03-20T11:35:48.665Z,3.70
2023-03-20T11:36:53.054Z,4.30
2023-03-20T11:37:48.599Z,4.60
2023-03-20T11:38:48.618Z,4.60
2023-03-20T11:39:48.590Z,4.70
2023-03-20T11:40:48.601Z,4.60
2023-03-20T11:41:48.577Z,4.80
2023-03-20T11:42:48.784Z,5.30
2023-03-20T11:43:48.583Z,4.90
2023-03-20T11:44:48.570Z,5.00
2023-03-20T11:45:48.609Z,5.20
2023-03-20T11:46:48.557Z,5.50
2023-03-20T11:47:48.554Z,5.60
2023-03-20T11:48:48.559Z,5.40
2023-03-20T11:49:48.547Z,5.40
2023-03-20T11:50:48.546Z,5.10
2023-03-20T11:51:48.550Z,4.80
2023-03-20T11:52:48.534Z,5.00
2023-03-20T11:53:48.533Z,4.60
2023-03-20T11:54:48.552Z,4.70
2023-03-20T11:55:48.524Z,4.80
2023-03-20T11:56:48.521Z,4.60
2023-03-20T11:57:48.516Z,5.10
2023-03-20T11:58:48.514Z,4.70
2023-03-20T11:59:48.506Z,4.50
2023-03-20T12:00:48.503Z,4.20
2023-03-20T12:01:48.497Z,4.20
2023-03-20T12:02:48.521Z,4.10
2023-03-20T12:03:48.504Z,4.00
2023-03-20T12:04:48.486Z,4.30
2023-03-20T12:05:48.479Z,4.30
2023-03-20T12:06:48.479Z,4.00
2023-03-20T12:07:48.474Z,3.90
2023-03-20T12:08:48.472Z,4.00
2023-03-20T12:09:48.465Z,3.70
2023-03-20T12:10:48.482Z,3.80
2023-03-20T12:11:48.459Z,3.40
2023-03-20T12:12:48.451Z,3.70
2023-03-20T12:13:48.449Z,3.90
2023-03-20T12:14:48.446Z,3.60
2023-03-20T12:15:48.501Z,3.90
2023-03-20T12:16:48.436Z,4.00
2023-03-20T12:17:48.448Z,4.30
2023-03-20T12:18:48.431Z,4.50
2023-03-20T12:19:48.426Z,4.30
2023-03-20T12:20:48.422Z,4.60
2023-03-20T12:21:48.593Z,4.30
2023-03-20T12:22:48.416Z,4.20
2023-03-20T12:23:48.408Z,4.80
2023-03-20T12:24:48.405Z,4.40
2023-03-20T12:25:48.404Z,4.60
2023-03-20T12:26:48.420Z,5.00
2023-03-20T12:27:48.395Z,4.70
2023-03-20T12:28:48.387Z,4.90
2023-03-20T12:29:48.403Z,4.40
2023-03-20T12:30:48.403Z,4.60
2023-03-20T12:31:48.375Z,4.70
2023-03-20T12:32:48.428Z,5.10
2023-03-20T12:33:48.368Z,5.00
2023-03-20T12:34:48.360Z,5.20
2023-03-20T12:35:48.401Z,4.90
2023-03-20T12:36:48.368Z,4.90
2023-03-20T12:37:48.375Z,4.90
2023-03-20T12:38:48.347Z,5.10
2023-03-20T12:39:48.345Z,5.20
2023-03-20T12:40:48.339Z,5.20
2023-03-20T12:41:48.341Z,5.50
2023-03-20T12:42:48.604Z,5.10
2023-03-20T12:43:48.331Z,4.50
2023-03-20T12:44:48.320Z,4.70
2023-03-20T12:45:48.321Z,4.00
2023-03-20T12:46:48.422Z,3.90
2023-03-20T12:47:48.309Z,3.50
2023-03-20T12:48:48.307Z,3.80
2023-03-20T12:49:48.306Z,3.30
2023-03-20T12:50:48.292Z,3.00
2023-03-20T12:51:48.293Z,3.20
2023-03-20T12:52:48.286Z,3.40
2023-03-20T12:53:48.298Z,3.10
2023-03-20T12:54:48.279Z,3.10
2023-03-20T12:55:48.290Z,3.30
2023-03-20T12:56:48.271Z,3.50
2023-03-20T12:57:48.271Z,3.30
2023-03-20T12:58:48.308Z,3.10
2023-03-20T12:59:48.265Z,3.70
2023-03-20T13:00:48.256Z,3.50
2023-03-20T13:01:48.269Z,3.30